SARI

Details ICAO SARI (IGR)
Name CATARATAS DEL IGUAZU
Region Argentina
Timezone America/Argentina/Cordoba (UTC-3.0)
Plans Departing 39
Arriving 50
Stats Elevation 916 ft / 279 m (AMSL)
Location -25.737279° -54.473444°
Runways 1
Magnetic Variation 16.247° W
Sunrise 2017-12-13 08:41:50 UTC / 2017-12-13 05:41:50 Local
Sunset 2017-12-13 22:25:19 UTC / 2017-12-13 19:25:19 Local
Advertisement - Login to hide

Runways

ID Width Length Bearing (true) Bearing (mag) Surface Threshold Offset Overrun Length
13 148 ft / 45 m 10,822 ft / 3,298 m 114.88° 131.13° Asphalt 0 ft / 0 m 95 ft / 29 m
31 148 ft / 45 m 10,822 ft / 3,298 m 294.87° 311.12° Asphalt 0 ft / 0 m 95 ft / 29 m

Approach Navaids

Runway Type Ident Frequency Range Bearing (true) Bearing (mag) Slope Elevation
31 Localiser IG 110.90 MHz 18 nm / 33 km 294.89° 311.13° - 920 ft / 280 m (AMSL)
31 Glidescope IG 110.90 MHz 10 nm / 19 km 294.88° 311.12° 3.00° 958 ft / 292 m (AMSL)
31 DME IG 110.90 MHz 18 nm / 33 km - - - 958 ft / 292 m (AMSL)

Map

Weather


0- 5 10 15 20 25 30 35+ Temperature / ° C

Clouds and Precipitation
Forecast for 2017-12-13 12:00 UTC. Updated 12 minutes ago

Ground ~20,000 ft ~40,000 ft Winds

METAR

SARI 130900Z 05005KT CAVOK 21/19 Q1013

TAF

TAF SARI 130500Z 1306/1406 05005KT CAVOK TX33/1318Z TN17/1309Z

Frequencies

Tower 120.70 MHz TWR/APP
Tower 118.30 MHz TWR/APP
Warning: Do not use this data for real-world aviation or navigation. No guarantee of current accuracy is given.